Victoria, TX (77901)

5:45 PM CDT on September 02, 2015 (GMT -0500)
WoodWay | | Change Station
CLOSE
Current Station
Personal Weather Station
Location: Victoria, TX
Elevation: 118 ft
Nearby Weather Stations

Elev 118 ft 28.86 °N, 97.02 °W | Updated 27 seconds ago

Mostly Cloudy
Mostly Cloudy
83.5 °F
Feels Like 90 °F
N
2.0
Wind Variable Wind from ENE
Gusts 2.0 mph

Today
High -- | Low -- °F
--% Chance of Precip.
Yesterday
High -- | Low -- °F
Precip. -- in
7:06 AM 7:48 PM
Waning Gibbous, 76% visible
Pressure 29.93 in
Visibility 6.0 miles
Clouds Mostly Cloudy 3200 ft
Mostly Cloudy 4700 ft
Overcast 9500 ft
Heat Index 90 °F
Dew Point 74 °F
Humidity 73%
Rainfall 0.00 in
Snow Depth Not available.
UV 1 out of 12
Pollen 6.60 out of 12
Air Quality Not available.
Flu Activity Not available.
SPECI KVCT 022219Z 08007KT 6SM -RA BR BKN032 BKN047 OVC095 26/24 A2993 RMK AO2 WSHFT 2159 RAB00 P0000 T02610244
Pressure 29.93 in
Visibility 6.0 miles
Clouds Mostly Cloudy 3200 ft
Mostly Cloudy 4700 ft
Overcast 9500 ft
Heat Index 90 °F
Dew Point 74 °F
Humidity 73%
Rainfall 0.00 in
Snow Depth Not available.
UV 1 out of 12
Pollen 6.60 out of 12
Air Quality Not available.
Flu Activity Not available.
SPECI KVCT 022219Z 08007KT 6SM -RA BR BKN032 BKN047 OVC095 26/24 A2993 RMK AO2 WSHFT 2159 RAB00 P0000 T02610244
Nowcast | as of 4:01 PM CDT on September 2, 2015

Through 6 PM CDT...isolated showers and thunderstorms will continue to affect portions of south Texas and the middle Texas coastal waters this afternoon. Rainfall will generally be moderate to heavy with rainfall amounts less than a half of an inch. Isolated higher amounts will be possible...along with brief gusty winds with any thunderstorm that occur.

×

10-Day Weather Forecast

×

Almanac

Astronomy

Sep. 02, 2015 Rise Set
Actual Time
Civil Twilight
Nautical Twilight
Astronomical Twilight
Moon
Length of Visible Light
Length of Day
Tomorrow will be .
, % of the Moon is Illuminated

Today's Extremes

State Highs State Lows

Community

WunderPhotos

Upload Photos

1,851,822 photos uploaded!

WunderBlogs® & News

Nearby

Air Quality

  Air Quality AQ Index Pollutant
Not available.

Snow Depth

Station Depth Elevation

Earthquake Activity

City Distance Mag. Time & Date
Minimum magnitude displayed is 2.5.

Coastal Water Temperatures

Place Temperature

Stations

Nearby Weather Stations

Station Location Temp. Windchill Dew Point Humidity Wind Precip. Elev Updated Type